Time;durP1;ratioP1;P1;durP2;ratioP2;P2;SDS_P1;SDS_P2;PMS_P1;PMS_P2;Temp;Humidity;BMP_temperature;BMP_pressure;BME280_temperature;BME280_humidity;BME280_pressure;Samples;Min_cycle;Max_cycle;Signal;HPM_P1;HPM_P2
2021/04/02 00:02:19;;;;;;;;;;;;;;;14.72;52.75;99184.53;5096610;28;20293;-72
2021/04/02 00:04:47;;;;;;;;;;;;;;;14.75;53.06;99184.44;5096553;28;19924;-72
2021/04/02 00:07:15;;;;;;;;;;;;;;;14.77;52.94;99180.13;5096169;28;20328;-72
2021/04/02 00:09:43;;;;;;;;;;;;;;;14.80;52.56;99173.19;5096061;28;20385;-72
2021/04/02 00:12:11;;;;;;;;;;;;;;;14.82;52.96;99172.28;5096101;28;19928;-72
2021/04/02 00:14:38;;;;;;;;;;;;;;;14.82;52.75;99166.28;5096067;28;19924;-72
2021/04/02 00:17:06;;;;;;;;;;;;;;;14.81;52.82;99168.00;5096290;28;19924;-72
2021/04/02 00:19:33;;;;;;;;;;;;;;;14.77;53.18;99162.13;5095891;28;19958;-72
2021/04/02 00:22:01;;;;;;;;;;;;;;;14.73;53.23;99168.22;5096126;28;20408;-72
2021/04/02 00:24:30;;;;;;;;;;;;;;;14.70;53.35;99165.75;5095883;28;20390;-72
2021/04/02 00:26:59;;;;;;;;;;;;;;;14.57;53.53;99166.06;5095726;28;20363;-72
2021/04/02 00:29:26;;;;;;;;;;;;;;;14.44;53.87;99165.56;5094537;28;20382;-72
2021/04/02 00:31:54;;;;;;;;;;;;;;;14.33;54.08;99162.38;5095681;28;19925;-72
2021/04/02 00:34:22;;;;;;;;;;;;;;;14.21;54.49;99172.91;5094815;28;19977;-72
2021/04/02 00:36:49;;;;;;;;;;;;;;;14.12;54.50;99168.00;5095581;28;19928;-72
2021/04/02 00:39:17;;;;;;;;;;;;;;;14.09;54.38;99160.38;5095833;28;19924;-72
2021/04/02 00:41:46;;;;;;;;;;;;;;;14.05;54.74;99154.47;5095448;28;19924;-72
2021/04/02 00:44:13;;;;;;;;;;;;;;;13.99;54.76;99161.44;5095312;28;19936;-72
2021/04/02 00:46:41;;;;;;;;;;;;;;;13.94;54.89;99158.16;5095338;28;20354;-72
2021/04/02 00:49:08;;;;;;;;;;;;;;;13.86;54.94;99160.91;5095314;28;19928;-71
2021/04/02 00:51:37;;;;;;;;;;;;;;;13.79;55.49;99166.19;5095319;28;19928;-72
2021/04/02 00:54:05;;;;;;;;;;;;;;;13.64;55.88;99176.78;5095270;28;20420;-71
2021/04/02 00:56:33;;;;;;;;;;;;;;;13.52;56.30;99171.91;5094050;28;20271;-71
2021/04/02 00:59:01;;;;;;;;;;;;;;;13.48;56.66;99172.84;5095453;28;20010;-71
2021/04/02 01:01:29;;;;;;;;;;;;;;;13.35;57.09;99170.53;5095044;28;19971;-72
2021/04/02 01:03:57;;;;;;;;;;;;;;;13.25;57.33;99171.59;5095095;28;19977;-72
2021/04/02 01:06:27;;;;;;;;;;;;;;;13.23;57.66;99167.38;5093870;28;19924;-72
2021/04/02 01:08:57;;;;;;;;;;;;;;;13.14;58.12;99168.41;5093833;28;19924;-71
2021/04/02 01:11:25;;;;;;;;;;;;;;;13.10;58.28;99165.94;5093768;28;20013;-72
2021/04/02 01:13:58;;;;;;;;;;;;;;;13.09;58.64;99174.47;5094106;28;20293;-71
2021/04/02 01:16:29;;;;;;;;;;;;;;;13.04;58.83;99176.25;5093930;28;19925;-72
2021/04/02 01:18:58;;;;;;;;;;;;;;;13.02;59.15;99178.00;5094891;28;19924;-72
2021/04/02 01:21:28;;;;;;;;;;;;;;;13.04;58.82;99174.53;5094980;28;19924;-71
2021/04/02 01:24:08;;;;;;;;;;;;;;;13.03;59.19;99175.41;5093616;28;19989;-71
2021/04/02 01:26:49;;;;;;;;;;;;;;;13.05;59.09;99176.22;5093632;28;19959;-72
2021/04/02 01:29:22;;;;;;;;;;;;;;;13.08;58.99;99176.19;5094993;28;19970;-72
2021/04/02 01:31:51;;;;;;;;;;;;;;;13.07;59.44;99177.09;5094682;28;19925;-71
2021/04/02 01:34:21;;;;;;;;;;;;;;;13.09;59.48;99185.59;5093781;28;19930;-72
2021/04/02 01:36:51;;;;;;;;;;;;;;;13.08;59.85;99188.16;5093638;28;19931;-72
2021/04/02 01:39:20;;;;;;;;;;;;;;;13.10;60.02;99184.69;5094541;28;19939;-72
2021/04/02 01:41:51;;;;;;;;;;;;;;;13.12;59.94;99185.53;5094653;28;19924;-72
2021/04/02 01:44:20;;;;;;;;;;;;;;;13.16;59.83;99187.16;5094519;28;19993;-72
2021/04/02 01:46:49;;;;;;;;;;;;;;;13.18;59.89;99175.16;5093498;28;20271;-72
2021/04/02 01:49:18;;;;;;;;;;;;;;;13.20;59.62;99165.72;5094405;28;19924;-72
2021/04/02 01:51:46;;;;;;;;;;;;;;;13.27;59.38;99163.84;5093433;28;19924;-72
2021/04/02 01:54:14;;;;;;;;;;;;;;;13.31;58.97;99153.53;5094332;28;19947;-72
2021/04/02 01:56:42;;;;;;;;;;;;;;;13.32;58.71;99157.78;5093323;28;19981;-72
2021/04/02 01:59:11;;;;;;;;;;;;;;;13.35;58.68;99162.84;5093049;28;19952;-72
2021/04/02 02:01:43;;;;;;;;;;;;;;;13.37;58.39;99161.09;5094150;28;19932;-72
2021/04/02 02:04:17;;;;;;;;;;;;;;;13.39;58.32;99154.22;5093073;28;19931;-72
2021/04/02 02:06:50;;;;;;;;;;;;;;;13.41;58.20;99161.88;5094201;28;19932;-72
2021/04/02 02:09:25;;;;;;;;;;;;;;;13.39;58.67;99174.72;5094487;28;19924;-72
2021/04/02 02:11:56;;;;;;;;;;;;;;;13.32;59.39;99173.16;5092941;28;19924;-71
2021/04/02 02:14:35;;;;;;;;;;;;;;;13.28;59.71;99171.53;5093209;28;19970;-72
2021/04/02 02:17:17;;;;;;;;;;;;;;;13.24;59.86;99175.03;5092884;28;19928;-72
2021/04/02 02:19:45;;;;;;;;;;;;;;;13.20;59.94;99170.84;5094305;28;19924;-72
2021/04/02 02:22:16;;;;;;;;;;;;;;;13.17;60.17;99183.69;5092754;28;19928;-72
2021/04/02 02:24:54;;;;;;;;;;;;;;;13.14;60.39;99173.53;5092906;28;19963;-72
2021/04/02 02:27:22;;;;;;;;;;;;;;;13.12;60.39;99175.28;5093731;28;20449;-72
2021/04/02 02:29:50;;;;;;;;;;;;;;;13.11;60.62;99188.94;5092795;28;19989;-72
2021/04/02 02:32:20;;;;;;;;;;;;;;;13.04;60.97;99187.34;5092970;28;19924;-72
2021/04/02 02:34:48;;;;;;;;;;;;;;;13.03;60.92;99185.66;5092714;28;19963;-72
2021/04/02 02:37:18;;;;;;;;;;;;;;;13.02;61.16;99181.41;5093846;28;20374;-72
2021/04/02 02:39:52;;;;;;;;;;;;;;;13.02;61.21;99183.97;5092967;28;19928;-72
2021/04/02 02:42:20;;;;;;;;;;;;;;;12.99;61.30;99184.03;5092527;28;19924;-72
2021/04/02 02:44:49;;;;;;;;;;;;;;;12.98;61.14;99182.31;5093119;28;19924;-72
2021/04/02 02:47:17;;;;;;;;;;;;;;;13.01;61.05;99182.28;5093797;28;19924;-72
2021/04/02 02:49:52;;;;;;;;;;;;;;;13.03;60.98;99172.00;5092645;28;20370;-72
2021/04/02 02:52:21;;;;;;;;;;;;;;;13.03;60.86;99172.00;5092820;28;19947;-72
2021/04/02 02:54:51;;;;;;;;;;;;;;;13.01;60.82;99172.03;5093674;28;19924;-72
2021/04/02 02:57:20;;;;;;;;;;;;;;;12.99;60.69;99168.66;5094311;28;19924;-72
2021/04/02 02:59:50;;;;;;;;;;;;;;;12.98;60.71;99166.94;5093657;28;19924;-72
2021/04/02 03:02:19;;;;;;;;;;;;;;;12.92;60.49;99164.50;5093886;28;19924;-72
2021/04/02 03:04:49;;;;;;;;;;;;;;;12.87;60.37;99168.88;5093601;28;19924;-72
2021/04/02 03:07:20;;;;;;;;;;;;;;;12.79;60.50;99170.72;5093894;28;19924;-72
2021/04/02 03:09:51;;;;;;;;;;;;;;;12.78;60.57;99174.16;5096140;28;20424;-72
2021/04/02 03:12:19;;;;;;;;;;;;;;;12.83;60.39;99172.38;5097455;28;20010;-72
2021/04/02 03:14:51;;;;;;;;;;;;;;;12.89;60.36;99167.13;5097276;28;19955;-72
2021/04/02 03:17:19;;;;;;;;;;;;;;;12.95;60.09;99174.72;5096005;28;19924;-72
2021/04/02 03:19:48;;;;;;;;;;;;;;;12.93;60.21;99179.03;5097218;28;19924;-72
2021/04/02 03:22:19;;;;;;;;;;;;;;;12.89;60.29;99187.63;5095879;28;19931;-72
2021/04/02 03:24:59;;;;;;;;;;;;;;;12.89;60.45;99190.19;5095974;28;19932;-72
2021/04/02 03:27:37;;;;;;;;;;;;;;;12.89;60.40;99191.88;5095743;28;19973;-72
2021/04/02 03:30:06;;;;;;;;;;;;;;;12.91;60.14;99195.28;5095781;28;19946;-72
2021/04/02 03:32:37;;;;;;;;;;;;;;;12.93;60.13;99199.53;5095707;28;19924;-72
2021/04/02 03:35:10;;;;;;;;;;;;;;;12.94;59.88;99201.19;5096056;28;20396;-72
2021/04/02 03:37:39;;;;;;;;;;;;;;;12.99;59.62;99193.41;5095904;28;20002;-72
2021/04/02 03:40:11;;;;;;;;;;;;;;;13.00;59.46;99190.84;5095599;28;20366;-72
2021/04/02 03:42:40;;;;;;;;;;;;;;;13.05;59.46;99198.44;5096649;28;19931;-72
2021/04/02 03:45:11;;;;;;;;;;;;;;;13.06;59.60;99201.00;5095586;28;20400;-71
2021/04/02 03:47:41;;;;;;;;;;;;;;;13.06;59.39;99197.59;5095490;28;19985;-72
2021/04/02 03:50:13;;;;;;;;;;;;;;;13.08;59.35;99198.41;5096679;28;19928;-72
2021/04/02 03:52:44;;;;;;;;;;;;;;;13.04;59.53;99195.03;5096601;28;19936;-72
2021/04/02 03:55:18;;;;;;;;;;;;;;;12.99;59.56;99204.50;5095650;28;20015;-72
2021/04/02 03:57:49;;;;;;;;;;;;;;;12.91;59.82;99216.59;5096484;28;19956;-72
2021/04/02 04:00:22;;;;;;;;;;;;;;;12.90;59.94;99219.19;5096339;28;19924;-72
2021/04/02 04:03:01;;;;;;;;;;;;;;;12.90;59.97;99217.50;5096720;28;19924;-72
2021/04/02 04:05:30;;;;;;;;;;;;;;;12.89;60.17;99218.34;5095083;28;20359;-71
2021/04/02 04:08:00;;;;;;;;;;;;;;;12.88;60.21;99221.81;5095260;28;19951;-72
2021/04/02 04:10:29;;;;;;;;;;;;;;;12.86;60.51;99220.97;5096215;28;20333;-72
2021/04/02 04:12:58;;;;;;;;;;;;;;;12.81;60.84;99220.22;5095108;28;19931;-71
2021/04/02 04:15:28;;;;;;;;;;;;;;;12.77;61.05;99216.84;5094964;28;19924;-71
2021/04/02 04:17:59;;;;;;;;;;;;;;;12.76;61.08;99222.00;5096071;28;19928;-71
2021/04/02 04:20:27;;;;;;;;;;;;;;;12.72;61.44;99220.34;5094867;28;19924;-71
2021/04/02 04:23:19;;;;;;;;;;;;;;;12.67;61.79;99232.38;5094381;28;19955;-71
2021/04/02 04:25:49;;;;;;;;;;;;;;;12.65;62.26;99234.13;5095881;28;19928;-71
2021/04/02 04:28:18;;;;;;;;;;;;;;;12.61;62.11;99227.38;5095879;28;19977;-72
2021/04/02 04:30:48;;;;;;;;;;;;;;;12.59;62.53;99229.13;5096076;28;19928;-71
2021/04/02 04:33:17;;;;;;;;;;;;;;;12.58;62.72;99227.41;5096068;28;19931;-71
2021/04/02 04:35:47;;;;;;;;;;;;;;;12.51;62.76;99231.78;5095630;28;20273;-72
2021/04/02 04:38:15;;;;;;;;;;;;;;;12.49;63.01;99238.66;5095682;28;20330;-72
2021/04/02 04:40:44;;;;;;;;;;;;;;;12.47;63.42;99235.28;5095506;28;19924;-72
2021/04/02 04:43:14;;;;;;;;;;;;;;;12.45;63.40;99236.19;5095500;28;20469;-72
2021/04/02 04:45:42;;;;;;;;;;;;;;;12.44;63.23;99231.91;5095468;28;20378;-72
2021/04/02 04:48:10;;;;;;;;;;;;;;;12.43;63.52;99238.75;5094288;28;19928;-72
2021/04/02 04:50:38;;;;;;;;;;;;;;;12.41;63.63;99234.50;5095691;28;19924;-72
2021/04/02 04:53:07;;;;;;;;;;;;;;;12.40;63.92;99238.81;5095642;28;19928;-72
2021/04/02 04:55:36;;;;;;;;;;;;;;;12.41;63.81;99239.63;5095507;28;20286;-72
2021/04/02 04:58:05;;;;;;;;;;;;;;;12.41;63.80;99244.75;5095256;28;19924;-72
2021/04/02 05:00:33;;;;;;;;;;;;;;;12.43;63.70;99241.31;5095089;28;19935;-72
2021/04/02 05:03:03;;;;;;;;;;;;;;;12.45;63.94;99246.41;5094004;28;19928;-72
2021/04/02 05:05:33;;;;;;;;;;;;;;;12.46;63.78;99248.94;5095390;28;19923;-72
2021/04/02 05:08:02;;;;;;;;;;;;;;;12.48;64.01;99251.47;5095108;28;19931;-72
2021/04/02 05:10:30;;;;;;;;;;;;;;;12.52;63.87;99253.13;5094997;28;20357;-72
2021/04/02 05:12:58;;;;;;;;;;;;;;;12.54;63.71;99262.47;5095027;28;19981;-72
2021/04/02 05:15:27;;;;;;;;;;;;;;;12.59;63.59;99259.84;5095200;28;19924;-72
2021/04/02 05:17:56;;;;;;;;;;;;;;;12.64;63.46;99268.28;5094873;28;19963;-73
2021/04/02 05:20:31;;;;;;;;;;;;;;;12.63;63.63;99264.03;5094849;28;19924;-73
2021/04/02 05:22:59;;;;;;;;;;;;;;;12.65;63.72;99264.84;5095155;28;20292;-73
2021/04/02 05:25:26;;;;;;;;;;;;;;;12.69;63.46;99262.22;5094692;28;20030;-73
2021/04/02 05:27:56;;;;;;;;;;;;;;;12.73;63.58;99278.38;5094535;28;20278;-73
2021/04/02 05:30:24;;;;;;;;;;;;;;;12.79;63.73;99268.03;5094658;28;19924;-75
2021/04/02 05:32:57;;;;;;;;;;;;;;;12.86;63.71;99274.75;5094558;28;19927;-73
2021/04/02 05:35:25;;;;;;;;;;;;;;;12.93;63.54;99276.38;5094579;28;19977;-72
2021/04/02 05:37:52;;;;;;;;;;;;;;;12.95;63.47;99279.72;5094487;28;19928;-73
2021/04/02 05:40:20;;;;;;;;;;;;;;;13.02;63.28;99285.59;5094563;28;19924;-73
2021/04/02 05:42:51;;;;;;;;;;;;;;;13.09;63.23;99276.97;5094428;28;19928;-73
2021/04/02 05:45:19;;;;;;;;;;;;;;;13.16;62.77;99279.41;5093324;28;19938;-72
2021/04/02 05:47:48;;;;;;;;;;;;;;;13.26;62.56;99280.94;5094354;28;20309;-72
2021/04/02 05:50:30;;;;;;;;;;;;;;;13.36;61.92;99277.31;5094410;28;19924;-72
2021/04/02 05:52:58;;;;;;;;;;;;;;;13.45;61.89;99273.75;5094435;28;19924;-73
2021/04/02 05:55:26;;;;;;;;;;;;;;;13.53;61.43;99264.19;5094609;28;20011;-73
2021/04/02 05:57:54;;;;;;;;;;;;;;;13.60;61.25;99270.88;5094193;28;19977;-73
2021/04/02 06:00:22;;;;;;;;;;;;;;;13.68;61.16;99268.16;5094223;28;20428;-73
2021/04/02 06:02:55;;;;;;;;;;;;;;;13.76;60.94;99276.53;5093003;28;19931;-72
2021/04/02 06:05:22;;;;;;;;;;;;;;;13.89;60.71;99278.81;5094233;28;19932;-73
2021/04/02 06:08:03;;;;;;;;;;;;;;;14.05;60.37;99284.50;5094254;28;19971;-72
2021/04/02 06:10:31;;;;;;;;;;;;;;;14.16;59.93;99285.09;5094680;28;20026;-72
2021/04/02 06:12:59;;;;;;;;;;;;;;;14.30;59.91;99285.66;5094060;28;19955;-73
2021/04/02 06:15:26;;;;;;;;;;;;;;;14.39;58.97;99284.63;5094034;28;19955;-72
2021/04/02 06:17:57;;;;;;;;;;;;;;;14.49;58.85;99286.94;5094076;28;20334;-72
2021/04/02 06:20:27;;;;;;;;;;;;;;;14.59;58.88;99292.72;5094335;28;19924;-73
2021/04/02 06:23:05;;;;;;;;;;;;;;;14.70;58.38;99296.75;5094259;28;19973;-72
2021/04/02 06:25:34;;;;;;;;;;;;;;;14.82;57.43;99302.47;5093054;28;19931;-72
2021/04/02 06:28:09;;;;;;;;;;;;;;;14.88;57.52;99310.88;5093990;28;19928;-72
2021/04/02 06:30:37;;;;;;;;;;;;;;;14.97;57.46;99304.69;5094311;28;19947;-72
2021/04/02 06:33:06;;;;;;;;;;;;;;;14.98;57.03;99306.34;5093852;28;20286;-72
2021/04/02 06:35:36;;;;;;;;;;;;;;;15.04;57.36;99304.50;5094170;28;19955;-72
2021/04/02 06:38:06;;;;;;;;;;;;;;;15.12;56.46;99304.28;5093841;28;19924;-72
2021/04/02 06:40:35;;;;;;;;;;;;;;;15.13;56.49;99305.97;5093751;28;20019;-70
2021/04/02 06:43:03;;;;;;;;;;;;;;;15.10;56.18;99313.75;5093364;28;19928;-72
2021/04/02 06:45:31;;;;;;;;;;;;;;;15.09;56.03;99319.78;5096585;28;19930;-72
2021/04/02 06:48:10;;;;;;;;;;;;;;;15.12;55.60;99314.56;5097727;28;19924;-72
2021/04/02 06:50:37;;;;;;;;;;;;;;;15.29;55.49;99317.56;5097706;28;19959;-72
2021/04/02 06:53:05;;;;;;;;;;;;;;;15.51;55.66;99318.72;5097671;28;19931;-72
2021/04/02 06:55:38;;;;;;;;;;;;;;;15.64;55.48;99320.09;5098094;28;19928;-72
2021/04/02 06:58:09;;;;;;;;;;;;;;;15.68;54.63;99316.53;5097564;28;19970;-72
2021/04/02 07:00:39;;;;;;;;;;;;;;;15.72;54.53;99318.13;5097847;28;19924;-72
2021/04/02 07:03:08;;;;;;;;;;;;;;;15.85;54.86;99316.06;5097380;28;19924;-72
2021/04/02 07:05:36;;;;;;;;;;;;;;;16.02;54.64;99322.44;5097424;28;20370;-72
2021/04/02 07:08:04;;;;;;;;;;;;;;;16.14;54.20;99316.09;5097465;28;19966;-72
2021/04/02 07:10:33;;;;;;;;;;;;;;;16.25;54.03;99320.91;5097326;28;19930;-72
2021/04/02 07:13:03;;;;;;;;;;;;;;;16.38;53.43;99329.97;5097674;28;20352;-72
2021/04/02 07:15:32;;;;;;;;;;;;;;;16.48;53.41;99327.09;5097751;28;19931;-72
2021/04/02 07:18:01;;;;;;;;;;;;;;;16.55;53.22;99336.38;5097434;28;19924;-73
2021/04/02 07:20:29;;;;;;;;;;;;;;;16.60;52.45;99331.06;5097421;28;19971;-72
2021/04/02 07:22:58;;;;;;;;;;;;;;;16.64;52.23;99342.94;5087884;28;19932;-73
2021/04/02 07:25:26;;;;;;;;;;;;;;;16.67;51.66;99337.72;5087318;28;19985;-72
2021/04/02 07:27:55;;;;;;;;;;;;;;;16.83;51.55;99338.06;5096896;28;19932;-72
2021/04/02 07:30:29;;;;;;;;;;;;;;;16.94;51.66;99341.16;5097130;28;19931;-72
2021/04/02 07:32:59;;;;;;;;;;;;;;;16.96;51.14;99344.53;5097159;28;19924;-72
2021/04/02 07:35:27;;;;;;;;;;;;;;;16.96;50.30;99340.22;5095604;28;20424;-73
2021/04/02 07:37:55;;;;;;;;;;;;;;;17.04;50.18;99343.38;5096933;28;20391;-72
2021/04/02 07:40:24;;;;;;;;;;;;;;;17.22;50.66;99341.94;5096724;28;19924;-72
2021/04/02 07:42:54;;;;;;;;;;;;;;;17.39;50.53;99339.66;5096537;28;19981;-72
2021/04/02 07:45:23;;;;;;;;;;;;;;;17.50;50.15;99331.53;5095434;28;19923;-71
2021/04/02 07:47:57;;;;;;;;;;;;;;;17.47;50.03;99340.22;5097259;28;19985;-72
2021/04/02 07:50:42;;;;;;;;;;;;;;;17.61;49.36;99339.81;5096542;28;19931;-72
2021/04/02 07:53:14;;;;;;;;;;;;;;;17.64;49.05;99342.25;5096467;28;19931;-73
2021/04/02 07:55:48;;;;;;;;;;;;;;;17.57;48.94;99345.94;5095510;28;19924;-73
2021/04/02 07:58:22;;;;;;;;;;;;;;;17.33;48.37;99335.53;5096383;28;19947;-72
2021/04/02 08:00:54;;;;;;;;;;;;;;;17.22;47.96;99335.06;5096432;28;19924;-72
2021/04/02 08:03:24;;;;;;;;;;;;;;;17.29;48.05;99339.13;5096240;28;19928;-72
2021/04/02 08:06:03;;;;;;;;;;;;;;;17.39;48.10;99340.50;5096325;28;19930;-72
2021/04/02 08:08:42;;;;;;;;;;;;;;;17.40;48.01;99347.34;5096271;28;20351;-72
2021/04/02 08:11:11;;;;;;;;;;;;;;;17.15;47.83;99351.63;5096161;28;20022;-72
2021/04/02 08:13:50;;;;;;;;;;;;;;;16.97;48.44;99356.50;5096105;28;19924;-71
2021/04/02 08:16:36;;;;;;;;;;;;;;;16.72;48.79;99356.47;5096074;28;19928;-71
2021/04/02 08:19:05;;;;;;;;;;;;;;;16.66;49.57;99354.06;5086489;28;19924;-72
2021/04/02 08:21:34;;;;;;;;;;;;;;;16.86;49.31;99354.28;5095869;28;19928;-71
2021/04/02 08:24:02;;;;;;;;;;;;;;;16.87;48.87;99363.69;5095816;28;19924;-72
2021/04/02 08:26:31;;;;;;;;;;;;;;;16.90;48.60;99366.19;5095658;28;19924;-72
2021/04/02 08:28:59;;;;;;;;;;;;;;;16.98;47.92;99368.53;5095630;28;19928;-71
2021/04/02 08:31:26;;;;;;;;;;;;;;;17.19;47.97;99368.69;5095642;28;19965;-70
2021/04/02 08:33:54;;;;;;;;;;;;;;;17.37;47.11;99365.50;5095431;28;19931;-71
2021/04/02 08:36:24;;;;;;;;;;;;;;;17.35;46.46;99364.69;5095736;28;19925;-71
2021/04/02 08:38:53;;;;;;;;;;;;;;;17.47;46.63;99358.28;5095544;28;19924;-70
2021/04/02 08:41:22;;;;;;;;;;;;;;;17.37;45.87;99357.75;5094195;28;19931;-70
2021/04/02 08:43:49;;;;;;;;;;;;;;;17.39;46.12;99360.28;5094282;28;19924;-71
2021/04/02 08:46:18;;;;;;;;;;;;;;;17.49;45.89;99364.25;5095434;28;19924;-72
2021/04/02 08:48:46;;;;;;;;;;;;;;;17.46;45.10;99355.75;5095299;28;20011;-72
2021/04/02 08:51:19;;;;;;;;;;;;;;;17.42;45.21;99353.28;5095294;28;20343;-71
2021/04/02 08:53:47;;;;;;;;;;;;;;;17.57;45.40;99348.53;5095318;28;19977;-71
2021/04/02 08:56:16;;;;;;;;;;;;;;;17.80;45.06;99353.75;5095469;28;20463;-71
2021/04/02 08:58:43;;;;;;;;;;;;;;;17.98;44.75;99345.34;5095485;28;19935;-71
2021/04/02 09:01:13;;;;;;;;;;;;;;;18.17;44.85;99345.50;5095021;28;19924;-69
2021/04/02 09:03:41;;;;;;;;;;;;;;;18.27;44.91;99352.03;5095118;28;19930;-71
2021/04/02 09:06:09;;;;;;;;;;;;;;;18.33;44.93;99352.63;5094473;28;19970;-71
2021/04/02 09:08:37;;;;;;;;;;;;;;;18.23;43.94;99351.31;5093801;28;20336;-71
2021/04/02 09:11:08;;;;;;;;;;;;;;;18.24;44.40;99347.81;5094926;28;19924;-71
2021/04/02 09:13:36;;;;;;;;;;;;;;;18.48;44.69;99357.25;5095035;28;20289;-72
2021/04/02 09:16:08;;;;;;;;;;;;;;;18.74;44.29;99357.09;5094911;28;19928;-72
2021/04/02 09:18:45;;;;;;;;;;;;;;;18.75;43.34;99350.19;5095202;28;20362;-72
2021/04/02 09:21:13;;;;;;;;;;;;;;;18.76;42.42;99351.88;5094433;28;19977;-72
2021/04/02 09:23:41;;;;;;;;;;;;;;;18.91;43.22;99350.44;5094741;28;19928;-72
2021/04/02 09:26:10;;;;;;;;;;;;;;;18.58;42.21;99353.44;5094411;28;20393;-71
2021/04/02 09:28:38;;;;;;;;;;;;;;;18.30;42.00;99352.75;5095082;28;19967;-72
2021/04/02 09:31:18;;;;;;;;;;;;;;;17.98;41.99;99355.66;5094646;28;20470;-72
2021/04/02 09:33:48;;;;;;;;;;;;;;;17.70;42.38;99360.13;5094683;28;19932;-71
2021/04/02 09:36:19;;;;;;;;;;;;;;;17.80;42.82;99356.34;5094610;28;19931;-72
2021/04/02 09:38:47;;;;;;;;;;;;;;;17.94;42.55;99348.94;5094541;28;20441;-72
2021/04/02 09:41:21;;;;;;;;;;;;;;;18.00;42.88;99346.13;5094415;28;19928;-72
2021/04/02 09:43:49;;;;;;;;;;;;;;;18.09;42.46;99353.56;5094543;28;20344;-72
2021/04/02 09:46:28;;;;;;;;;;;;;;;18.35;42.64;99355.16;5094678;28;19924;-72
2021/04/02 09:49:06;;;;;;;;;;;;;;;18.50;42.11;99358.03;5094395;28;19928;-72
2021/04/02 09:51:35;;;;;;;;;;;;;;;18.46;40.83;99353.91;5094646;28;20370;-72
2021/04/02 09:54:02;;;;;;;;;;;;;;;18.78;41.39;99341.47;5094750;28;19924;-73
2021/04/02 09:56:31;;;;;;;;;;;;;;;19.12;41.41;99350.38;5094570;28;20408;-73
2021/04/02 09:58:59;;;;;;;;;;;;;;;19.12;39.92;99344.41;5093362;28;19925;-72
2021/04/02 10:01:26;;;;;;;;;;;;;;;19.16;39.92;99346.81;5094133;28;19931;-73
2021/04/02 10:03:54;;;;;;;;;;;;;;;19.41;39.62;99336.31;5094550;28;19928;-74
2021/04/02 10:06:22;;;;;;;;;;;;;;;19.42;38.81;99348.34;5094108;28;19924;-74
2021/04/02 10:08:53;;;;;;;;;;;;;;;18.99;38.47;99335.44;5076497;28;19924;-75
2021/04/02 10:11:21;;;;;;;;;;;;;;;18.80;39.13;99339.66;5094120;28;19924;-74
2021/04/02 10:13:50;;;;;;;;;;;;;;;18.41;39.65;99348.03;5094114;28;20021;-75
2021/04/02 10:16:18;;;;;;;;;;;;;;;18.31;41.15;99344.09;5093100;28;19924;-75
2021/04/02 10:18:47;;;;;;;;;;;;;;;18.11;41.51;99338.84;5095915;28;19924;-74
2021/04/02 10:21:16;;;;;;;;;;;;;;;17.95;42.00;99335.09;5098495;28;19939;-74
2021/04/02 10:23:44;;;;;;;;;;;;;;;17.78;42.00;99340.06;5094335;28;19967;-75
2021/04/02 10:26:12;;;;;;;;;;;;;;;17.81;41.05;99337.34;5092488;28;19928;-72
2021/04/02 10:28:40;;;;;;;;;;;;;;;17.97;40.61;99338.50;5094955;28;20362;-72
2021/04/02 10:31:09;;;;;;;;;;;;;;;18.08;39.98;99333.78;5097974;28;19937;-72
2021/04/02 10:33:37;;;;;;;;;;;;;;;18.27;40.18;99347.69;5098050;28;19924;-74
2021/04/02 10:36:05;;;;;;;;;;;;;;;18.36;40.31;99334.44;5097954;28;19924;-73
2021/04/02 10:38:33;;;;;;;;;;;;;;;18.31;39.77;99338.94;5097968;28;19978;-73
2021/04/02 10:41:01;;;;;;;;;;;;;;;18.22;39.33;99334.09;5097887;28;19924;-73
2021/04/02 10:43:30;;;;;;;;;;;;;;;17.97;39.71;99343.66;5097802;28;20347;-72
2021/04/02 10:45:59;;;;;;;;;;;;;;;17.72;39.86;99342.84;5097818;28;20023;-73
2021/04/02 10:48:27;;;;;;;;;;;;;;;17.63;40.24;99345.75;5098477;28;20373;-73
2021/04/02 10:50:56;;;;;;;;;;;;;;;17.64;40.50;99348.25;5097581;28;20386;-73
2021/04/02 10:53:26;;;;;;;;;;;;;;;17.67;40.85;99344.72;5097730;28;19929;-73
2021/04/02 10:55:53;;;;;;;;;;;;;;;17.71;40.30;99339.41;5097642;28;19952;-72
2021/04/02 10:58:21;;;;;;;;;;;;;;;17.63;40.49;99343.16;5097569;28;19924;-73
2021/04/02 11:00:49;;;;;;;;;;;;;;;17.56;40.47;99346.84;5112870;28;20328;-73
2021/04/02 11:03:17;;;;;;;;;;;;;;;17.42;40.68;99345.53;5093929;28;19924;-74
2021/04/02 11:05:46;;;;;;;;;;;;;;;17.38;40.88;99349.13;5096742;28;19932;-74
2021/04/02 11:08:13;;;;;;;;;;;;;;;17.34;40.88;99352.72;5097262;28;19924;-73
2021/04/02 11:10:41;;;;;;;;;;;;;;;17.24;40.30;99350.47;5096022;28;19932;-73
2021/04/02 11:13:09;;;;;;;;;;;;;;;17.18;41.12;99354.09;5097324;28;19924;-73
2021/04/02 11:15:37;;;;;;;;;;;;;;;17.06;41.65;99346.75;5097136;28;20019;-72
2021/04/02 11:18:05;;;;;;;;;;;;;;;16.87;41.63;99344.84;5095924;28;20383;-70
2021/04/02 11:20:33;;;;;;;;;;;;;;;16.70;42.17;99348.75;5097153;28;19974;-72
2021/04/02 11:23:01;;;;;;;;;;;;;;;16.60;43.09;99351.69;5096939;28;19924;-72
2021/04/02 11:25:29;;;;;;;;;;;;;;;16.46;43.52;99353.78;5097058;28;20028;-73
2021/04/02 11:27:57;;;;;;;;;;;;;;;16.28;43.64;99355.16;5096853;28;20023;-72
2021/04/02 11:30:25;;;;;;;;;;;;;;;16.32;44.56;99355.91;5096555;28;20023;-72
2021/04/02 11:32:53;;;;;;;;;;;;;;;16.27;44.75;99357.81;5096783;28;19924;-72
2021/04/02 11:35:21;;;;;;;;;;;;;;;16.08;44.44;99355.72;5096786;28;19925;-72
2021/04/02 11:37:48;;;;;;;;;;;;;;;16.00;44.57;99359.41;5096828;28;20293;-72
2021/04/02 11:40:17;;;;;;;;;;;;;;;16.18;44.98;99358.03;5096661;28;20370;-72
2021/04/02 11:42:45;;;;;;;;;;;;;;;16.36;44.96;99347.22;5097018;28;19927;-72
2021/04/02 11:45:13;;;;;;;;;;;;;;;16.43;45.01;99353.88;5096658;28;20019;-71
2021/04/02 11:47:41;;;;;;;;;;;;;;;16.35;44.50;99355.81;5096649;28;19967;-72
2021/04/02 11:50:10;;;;;;;;;;;;;;;16.33;44.94;99352.47;5096901;28;19931;-72
2021/04/02 11:52:38;;;;;;;;;;;;;;;16.49;45.78;99349.38;5096512;28;19931;-72
2021/04/02 11:55:07;;;;;;;;;;;;;;;16.50;45.24;99345.94;5096449;28;19935;-72
2021/04/02 11:57:36;;;;;;;;;;;;;;;16.53;44.78;99339.88;5096260;28;20289;-72
2021/04/02 12:00:05;;;;;;;;;;;;;;;16.51;44.55;99344.16;5096284;28;19967;-72
2021/04/02 12:02:40;;;;;;;;;;;;;;;16.45;45.03;99340.06;5096214;28;19960;-72
2021/04/02 12:05:08;;;;;;;;;;;;;;;16.54;45.19;99341.53;5096243;28;20404;-72
2021/04/02 12:07:36;;;;;;;;;;;;;;;16.67;44.14;99342.88;5096328;28;20386;-72
2021/04/02 12:10:04;;;;;;;;;;;;;;;16.79;44.48;99336.50;5096162;28;20035;-73
2021/04/02 12:12:32;;;;;;;;;;;;;;;16.84;44.44;99330.31;5096408;28;20389;-72
2021/04/02 12:15:01;;;;;;;;;;;;;;;16.83;43.59;99331.19;5096343;28;19998;-72
2021/04/02 12:17:29;;;;;;;;;;;;;;;16.77;43.63;99339.13;5096093;28;20300;-72
2021/04/02 12:19:57;;;;;;;;;;;;;;;17.17;44.35;99325.78;5095898;28;19924;-72
2021/04/02 12:22:25;;;;;;;;;;;;;;;17.65;43.82;99316.41;5095788;28;19931;-72
2021/04/02 12:24:53;;;;;;;;;;;;;;;18.01;42.25;99315.09;5095912;28;20378;-72
2021/04/02 12:27:21;;;;;;;;;;;;;;;18.39;41.81;99308.47;5095555;28;19924;-72
2021/04/02 12:29:49;;;;;;;;;;;;;;;18.42;41.45;99310.97;5095887;28;19932;-72
2021/04/02 12:32:17;;;;;;;;;;;;;;;18.21;41.40;99306.56;5095715;28;20405;-72
2021/04/02 12:34:46;;;;;;;;;;;;;;;18.02;41.51;99295.25;5095740;28;19924;-72
2021/04/02 12:37:13;;;;;;;;;;;;;;;17.98;41.99;99299.69;5095576;28;19924;-72
2021/04/02 12:39:41;;;;;;;;;;;;;;;18.03;41.38;99302.09;5095599;28;20472;-72
2021/04/02 12:42:10;;;;;;;;;;;;;;;18.41;41.76;99293.75;5094637;28;19924;-72
2021/04/02 12:44:38;;;;;;;;;;;;;;;18.35;41.46;99299.16;5095479;28;19960;-71
2021/04/02 12:47:05;;;;;;;;;;;;;;;17.82;40.42;99302.91;5094359;28;19985;-72
2021/04/02 12:49:35;;;;;;;;;;;;;;;17.40;41.27;99289.72;5095366;28;20377;-72
2021/04/02 12:52:03;;;;;;;;;;;;;;;17.14;42.12;99293.19;5095459;28;20401;-72
2021/04/02 12:54:31;;;;;;;;;;;;;;;17.07;42.68;99296.88;5095410;28;19924;-72
2021/04/02 12:56:59;;;;;;;;;;;;;;;16.91;42.77;99300.84;5095241;28;19928;-72
2021/04/02 12:59:26;;;;;;;;;;;;;;;16.76;42.75;99298.75;5095269;28;19923;-72
2021/04/02 13:01:54;;;;;;;;;;;;;;;16.66;41.95;99287.06;5095129;28;19932;-72